createdAt,value
2023-04-10T00:00:57.697Z,34.28
2023-04-10T00:03:27.063Z,34.58
2023-04-10T00:05:55.546Z,33.95
2023-04-10T00:08:24.230Z,34.97
2023-04-10T00:10:53.306Z,31.33
2023-04-10T00:13:21.726Z,31.58
2023-04-10T00:15:50.170Z,31.25
2023-04-10T00:18:19.458Z,36.95
2023-04-10T00:20:47.313Z,35.15
2023-04-10T00:23:15.433Z,35.97
2023-04-10T00:25:43.287Z,37.50
2023-04-10T00:28:11.152Z,34.10
2023-04-10T00:30:39.588Z,40.20
2023-04-10T00:33:07.465Z,37.58
2023-04-10T00:35:36.717Z,37.25
2023-04-10T00:38:04.648Z,34.77
2023-04-10T00:40:32.526Z,32.55
2023-04-10T00:43:00.614Z,31.90
2023-04-10T00:45:28.866Z,32.67
2023-04-10T00:47:57.035Z,31.70
2023-04-10T00:50:25.545Z,32.83
2023-04-10T00:52:54.739Z,30.88
2023-04-10T00:57:51.325Z,31.13
2023-04-10T01:00:19.970Z,32.13
2023-04-10T01:05:18.496Z,32.33
2023-04-10T01:08:00.739Z,31.45
2023-04-10T01:10:39.498Z,33.83
2023-04-10T01:13:15.526Z,31.98
2023-04-10T01:15:48.848Z,32.30
2023-04-10T01:18:23.934Z,29.95
2023-04-10T01:20:51.786Z,31.15
2023-04-10T01:24:04.604Z,31.95
2023-04-10T01:26:44.315Z,32.25
2023-04-10T01:29:19.633Z,32.60
2023-04-10T01:31:53.487Z,32.60
2023-04-10T01:34:24.885Z,31.35
2023-04-10T01:36:56.360Z,32.83
2023-04-10T01:39:28.144Z,32.88
2023-04-10T01:41:59.868Z,34.72
2023-04-10T01:44:42.843Z,32.55
2023-04-10T01:47:11.241Z,32.95
2023-04-10T01:49:44.381Z,34.40
2023-04-10T01:52:13.006Z,31.52
2023-04-10T01:57:15.245Z,31.77
2023-04-10T01:59:56.104Z,31.10
2023-04-10T02:02:24.293Z,31.73
2023-04-10T02:04:52.375Z,32.83
2023-04-10T02:07:26.649Z,32.63
2023-04-10T02:10:01.053Z,32.50
2023-04-10T02:12:32.034Z,31.45
2023-04-10T02:15:03.917Z,33.05
2023-04-10T02:17:34.204Z,32.10
2023-04-10T02:20:06.551Z,31.45
2023-04-10T02:22:35.435Z,31.83
2023-04-10T02:25:05.517Z,31.52
2023-04-10T02:27:35.576Z,32.55
2023-04-10T02:30:05.868Z,34.10
2023-04-10T02:32:36.942Z,31.00
2023-04-10T02:35:09.227Z,32.22
2023-04-10T02:37:38.638Z,32.10
2023-04-10T02:40:07.925Z,30.92
2023-04-10T02:42:47.479Z,29.98
2023-04-10T02:45:16.861Z,30.40
2023-04-10T02:47:45.515Z,32.15
2023-04-10T02:50:13.556Z,31.02
2023-04-10T02:52:45.009Z,29.40
2023-04-10T02:55:13.073Z,30.13
2023-04-10T02:57:42.543Z,30.92
2023-04-10T03:00:11.755Z,32.78
2023-04-10T03:03:10.372Z,31.02
2023-04-10T03:08:20.187Z,31.05
2023-04-10T03:10:49.452Z,32.60
2023-04-10T03:13:17.516Z,30.70
2023-04-10T03:15:45.555Z,31.27
2023-04-10T03:18:15.081Z,31.48
2023-04-10T03:20:45.403Z,30.02
2023-04-10T03:23:13.456Z,31.55
2023-04-10T03:25:42.263Z,32.40
2023-04-10T03:28:10.863Z,31.75
2023-04-10T03:30:38.939Z,31.02
2023-04-10T03:33:06.797Z,30.08
2023-04-10T03:35:35.982Z,30.40
2023-04-10T03:38:03.854Z,22.38
2023-04-10T03:40:31.628Z,30.35
2023-04-10T03:42:59.596Z,31.05
2023-04-10T03:45:29.407Z,30.85
2023-04-10T03:47:57.306Z,31.95
2023-04-10T03:50:26.096Z,30.88
2023-04-10T03:53:01.739Z,31.02
2023-04-10T03:55:29.679Z,31.08
2023-04-10T03:57:57.765Z,31.20
2023-04-10T04:00:27.275Z,31.05
2023-04-10T04:03:05.022Z,31.52
2023-04-10T04:05:57.611Z,30.60
2023-04-10T04:08:26.878Z,29.65
2023-04-10T04:11:30.066Z,31.83
2023-04-10T04:14:04.294Z,30.88
2023-04-10T04:16:45.071Z,29.83
2023-04-10T04:19:27.807Z,30.30
2023-04-10T04:22:31.029Z,30.40
2023-04-10T04:25:22.713Z,30.13
2023-04-10T04:28:21.064Z,29.40
2023-04-10T04:31:18.095Z,30.40
2023-04-10T04:34:04.547Z,30.65
2023-04-10T04:37:10.663Z,30.55
2023-04-10T04:40:12.344Z,27.85
2023-04-10T04:42:59.554Z,29.08
2023-04-10T04:45:45.912Z,29.17
2023-04-10T04:48:30.691Z,27.52
2023-04-10T04:51:18.616Z,29.98
2023-04-10T04:53:50.992Z,28.48
2023-04-10T04:56:46.949Z,28.50
2023-04-10T04:59:47.234Z,30.02
2023-04-10T05:02:38.066Z,29.35
2023-04-10T05:05:26.135Z,31.13
2023-04-10T05:08:10.865Z,29.13
2023-04-10T05:10:47.827Z,31.10
2023-04-10T05:13:30.868Z,30.88
2023-04-10T05:16:15.926Z,31.95
2023-04-10T05:19:02.145Z,30.80
2023-04-10T05:21:53.267Z,30.27
2023-04-10T05:24:33.618Z,30.65
2023-04-10T05:27:16.163Z,29.92
2023-04-10T05:30:19.286Z,29.05
2023-04-10T05:33:07.177Z,29.88
2023-04-10T05:36:07.915Z,30.27
2023-04-10T05:38:51.109Z,29.35
2023-04-10T05:41:48.070Z,30.08
2023-04-10T05:44:36.127Z,32.03
2023-04-10T05:47:04.070Z,32.08
2023-04-10T05:49:59.132Z,32.17
2023-04-10T05:52:36.576Z,33.35
2023-04-10T05:55:24.384Z,33.63
2023-04-10T05:58:15.382Z,33.55
2023-04-10T06:01:03.155Z,32.45
2023-04-10T06:03:45.441Z,32.38
2023-04-10T06:06:15.080Z,32.40
2023-04-10T06:08:42.946Z,32.10
2023-04-10T06:11:10.857Z,31.27
2023-04-10T06:13:39.140Z,34.17
2023-04-10T06:16:08.090Z,36.13
2023-04-10T06:18:36.152Z,35.22
2023-04-10T06:21:04.930Z,34.53
2023-04-10T06:23:34.159Z,32.05
2023-04-10T06:26:03.420Z,34.05
2023-04-10T06:28:31.489Z,35.22
2023-04-10T06:31:04.275Z,33.13
2023-04-10T06:33:36.621Z,32.38
2023-04-10T06:36:06.864Z,35.08
2023-04-10T06:38:41.260Z,34.17
2023-04-10T06:41:09.227Z,34.70
2023-04-10T06:43:38.084Z,35.83
2023-04-10T06:46:06.466Z,35.90
2023-04-10T06:48:34.837Z,37.53
2023-04-10T06:51:02.819Z,37.22
2023-04-10T06:53:31.198Z,35.03
2023-04-10T06:56:03.152Z,33.97
2023-04-10T06:58:32.021Z,39.20
2023-04-10T07:01:04.456Z,35.97
2023-04-10T07:03:32.802Z,33.95
2023-04-10T07:06:01.980Z,33.78
2023-04-10T07:08:29.851Z,34.58
2023-04-10T07:10:58.719Z,33.30
2023-04-10T07:13:28.198Z,31.35
2023-04-10T07:15:56.126Z,31.45
2023-04-10T07:18:24.028Z,31.42
2023-04-10T07:20:52.607Z,28.73
2023-04-10T07:23:20.630Z,24.73
2023-04-10T07:25:48.434Z,21.05
2023-04-10T07:28:16.387Z,23.00
2023-04-10T07:30:45.508Z,21.95
2023-04-10T07:33:13.508Z,23.00
2023-04-10T07:35:41.666Z,21.63
2023-04-10T07:38:09.757Z,21.35
2023-04-10T07:40:37.560Z,20.05
2023-04-10T07:43:05.493Z,18.83
2023-04-10T07:45:33.745Z,17.67
2023-04-10T07:48:03.531Z,17.80
2023-04-10T07:50:31.897Z,17.67
2023-04-10T07:53:03.493Z,17.38
2023-04-10T07:55:31.353Z,18.08
2023-04-10T07:57:59.191Z,17.20
2023-04-10T08:00:27.106Z,15.05
2023-04-10T08:02:55.065Z,14.73
2023-04-10T08:05:24.526Z,14.70
2023-04-10T08:07:52.441Z,14.50
2023-04-10T08:10:20.311Z,14.63
2023-04-10T08:12:48.188Z,13.65
2023-04-10T08:15:16.238Z,14.27
2023-04-10T08:17:44.054Z,14.38
2023-04-10T08:20:13.017Z,14.07
2023-04-10T08:22:42.143Z,13.98
2023-04-10T08:25:10.790Z,13.52
2023-04-10T08:27:38.968Z,14.27
2023-04-10T08:30:07.883Z,13.43
2023-04-10T08:32:36.578Z,13.95
2023-04-10T08:35:04.738Z,13.73
2023-04-10T08:37:32.466Z,13.38
2023-04-10T08:40:01.691Z,13.05
2023-04-10T08:42:29.534Z,14.20
2023-04-10T08:44:57.423Z,13.80
2023-04-10T08:47:29.151Z,13.15
2023-04-10T08:49:58.498Z,12.82
2023-04-10T08:52:27.737Z,14.93
2023-04-10T08:54:57.514Z,14.30
2023-04-10T08:57:27.986Z,13.43
2023-04-10T08:59:56.477Z,14.07
2023-04-10T09:02:25.771Z,13.52
2023-04-10T09:04:55.588Z,12.48
2023-04-10T09:07:24.242Z,13.18
2023-04-10T09:09:52.066Z,13.00
2023-04-10T09:12:19.907Z,13.55
2023-04-10T09:14:53.304Z,13.52
2023-04-10T09:17:22.637Z,13.18
2023-04-10T09:19:52.429Z,13.80
2023-04-10T09:22:29.735Z,13.65
2023-04-10T09:24:59.339Z,13.18
2023-04-10T09:27:35.217Z,13.25
2023-04-10T09:30:05.693Z,12.93
2023-04-10T09:32:41.965Z,12.18
2023-04-10T09:35:11.756Z,12.52
2023-04-10T09:37:41.132Z,13.32
2023-04-10T09:40:22.338Z,12.87
2023-04-10T09:42:50.376Z,12.45
2023-04-10T09:45:20.475Z,12.70
2023-04-10T09:48:02.791Z,12.82
2023-04-10T09:50:38.022Z,12.63
2023-04-10T09:53:07.582Z,12.68
2023-04-10T09:55:36.326Z,11.95
2023-04-10T09:58:05.323Z,12.85
2023-04-10T10:00:39.844Z,12.90
2023-04-10T10:03:10.145Z,12.05
2023-04-10T10:05:41.074Z,10.88
2023-04-10T10:08:11.072Z,11.55
2023-04-10T10:10:46.043Z,11.43
2023-04-10T10:13:19.018Z,11.13
2023-04-10T10:15:56.112Z,10.90
2023-04-10T10:18:32.213Z,10.82
2023-04-10T10:21:01.178Z,10.65
2023-04-10T10:23:29.688Z,10.73
2023-04-10T10:26:00.231Z,10.32
2023-04-10T10:28:32.538Z,10.35
2023-04-10T10:31:03.637Z,10.77
2023-04-10T10:33:31.821Z,10.32
2023-04-10T10:36:01.365Z,9.52
2023-04-10T10:38:29.494Z,11.70
2023-04-10T10:41:07.828Z,10.18
2023-04-10T10:43:43.411Z,9.13
2023-04-10T10:46:18.492Z,10.05
2023-04-10T10:48:57.788Z,9.75
2023-04-10T10:51:25.903Z,8.95
2023-04-10T10:53:53.840Z,9.13
2023-04-10T10:56:35.499Z,7.90
2023-04-10T10:59:03.361Z,7.93
2023-04-10T11:01:32.787Z,8.13
2023-04-10T11:04:01.371Z,9.17
2023-04-10T11:06:53.516Z,8.40
2023-04-10T11:09:45.814Z,8.70
2023-04-10T11:12:14.028Z,7.20
2023-04-10T11:14:43.616Z,7.75
2023-04-10T11:17:12.962Z,8.85
2023-04-10T11:20:01.547Z,8.73
2023-04-10T11:22:29.528Z,9.30
2023-04-10T11:24:59.956Z,7.97
2023-04-10T11:27:42.381Z,8.43
2023-04-10T11:30:43.573Z,7.50
2023-04-10T11:33:18.939Z,7.80
2023-04-10T11:35:47.450Z,8.55
2023-04-10T11:38:18.151Z,7.63
2023-04-10T11:40:59.569Z,8.63
2023-04-10T11:43:27.562Z,7.43
2023-04-10T11:46:03.487Z,8.13
2023-04-10T11:48:33.310Z,7.82
2023-04-10T11:51:07.453Z,7.55
2023-04-10T11:53:35.372Z,7.22
2023-04-10T11:56:03.113Z,7.13
2023-04-10T11:58:32.034Z,7.07
2023-04-10T12:01:01.180Z,7.75
2023-04-10T12:03:35.623Z,7.05
2023-04-10T12:06:04.098Z,6.93
2023-04-10T12:08:32.808Z,7.32
2023-04-10T12:11:01.332Z,7.63
2023-04-10T12:13:30.589Z,7.35
2023-04-10T12:16:03.466Z,7.57
2023-04-10T12:18:31.989Z,8.23
2023-04-10T12:21:01.958Z,8.02
2023-04-10T12:23:31.115Z,7.88
2023-04-10T12:26:11.294Z,8.25
2023-04-10T12:28:40.509Z,8.40
2023-04-10T12:31:09.414Z,7.95
2023-04-10T12:33:37.570Z,7.30
2023-04-10T12:36:07.357Z,7.97
2023-04-10T12:38:42.784Z,8.07
2023-04-10T12:41:11.686Z,9.32
2023-04-10T12:43:41.187Z,8.82
2023-04-10T12:46:11.243Z,7.22
2023-04-10T12:48:39.318Z,8.35
2023-04-10T12:51:08.829Z,8.98
2023-04-10T12:53:45.252Z,8.77
2023-04-10T12:56:14.686Z,7.60
2023-04-10T12:58:42.708Z,7.90
2023-04-10T13:01:11.044Z,8.50
2023-04-10T13:03:39.144Z,7.63
2023-04-10T13:06:09.429Z,8.75
2023-04-10T13:11:05.626Z,8.20
2023-04-10T13:13:33.650Z,7.55
2023-04-10T13:16:01.647Z,8.73
2023-04-10T13:18:29.587Z,7.65
2023-04-10T13:20:57.443Z,7.85
2023-04-10T13:23:26.639Z,8.23
2023-04-10T13:25:54.625Z,8.15
2023-04-10T13:28:22.582Z,7.88
2023-04-10T13:30:50.515Z,6.60
2023-04-10T13:33:18.402Z,5.97
2023-04-10T13:35:46.353Z,7.13
2023-04-10T13:38:14.332Z,7.18
2023-04-10T13:40:43.698Z,8.13
2023-04-10T13:43:11.536Z,6.37
2023-04-10T13:45:39.295Z,7.30
2023-04-10T13:48:08.139Z,7.30
2023-04-10T13:50:36.126Z,6.40
2023-04-10T13:53:03.997Z,6.10
2023-04-10T13:55:31.805Z,4.72
2023-04-10T13:58:01.130Z,4.40
2023-04-10T14:00:28.960Z,4.77
2023-04-10T14:02:57.135Z,4.53
2023-04-10T14:05:25.153Z,3.97
2023-04-10T14:07:56.801Z,4.85
2023-04-10T14:10:24.669Z,4.05
2023-04-10T14:12:52.482Z,4.00
2023-04-10T14:15:21.761Z,4.10
2023-04-10T14:17:49.699Z,4.78
2023-04-10T14:20:17.635Z,4.50
2023-04-10T14:22:47.355Z,3.80
2023-04-10T14:25:15.935Z,4.53
2023-04-10T14:27:44.247Z,3.90
2023-04-10T14:30:13.743Z,4.40
2023-04-10T14:32:43.941Z,4.22
2023-04-10T14:37:39.981Z,3.17
2023-04-10T14:40:08.925Z,3.17
2023-04-10T14:42:36.796Z,3.60
2023-04-10T14:45:06.188Z,3.20
2023-04-10T14:47:34.129Z,2.88
2023-04-10T14:50:03.708Z,4.60
2023-04-10T14:52:31.571Z,4.97
2023-04-10T14:54:59.381Z,3.65
2023-04-10T14:57:28.072Z,3.00
2023-04-10T14:59:56.067Z,2.83
2023-04-10T15:02:24.416Z,3.17
2023-04-10T15:04:52.405Z,2.65
2023-04-10T15:07:21.704Z,2.58
2023-04-10T15:09:49.483Z,2.80
2023-04-10T15:12:17.581Z,2.30
2023-04-10T15:14:45.468Z,2.55
2023-04-10T15:17:13.522Z,2.40
2023-04-10T15:19:41.420Z,2.58
2023-04-10T15:22:09.363Z,2.60
2023-04-10T15:24:49.879Z,2.50
2023-04-10T15:27:20.226Z,2.15
2023-04-10T15:29:50.250Z,2.40
2023-04-10T15:32:18.111Z,2.40
2023-04-10T15:34:45.939Z,2.90
2023-04-10T15:37:13.776Z,2.78
2023-04-10T15:39:43.112Z,2.20
2023-04-10T15:42:11.007Z,2.90
2023-04-10T15:44:38.881Z,2.75
2023-04-10T15:47:06.795Z,2.83
2023-04-10T15:49:38.514Z,2.33
2023-04-10T15:52:06.910Z,2.47
2023-04-10T15:54:35.389Z,2.58
2023-04-10T15:57:04.881Z,2.90
2023-04-10T15:59:33.813Z,3.00
2023-04-10T16:02:01.895Z,3.60
2023-04-10T16:04:31.453Z,3.08
2023-04-10T16:06:59.599Z,2.60
2023-04-10T16:09:27.650Z,3.83
2023-04-10T16:11:56.154Z,3.42
2023-04-10T16:14:25.629Z,3.75
2023-04-10T16:16:55.930Z,6.05
2023-04-10T16:19:23.926Z,3.90
2023-04-10T16:21:51.801Z,3.00
2023-04-10T16:24:19.574Z,6.82
2023-04-10T16:26:47.452Z,4.50
2023-04-10T16:29:16.038Z,3.58
2023-04-10T16:31:45.500Z,3.45
2023-04-10T16:34:13.478Z,3.22
2023-04-10T16:36:41.313Z,3.90
2023-04-10T16:39:09.136Z,3.67
2023-04-10T16:41:36.978Z,3.75
2023-04-10T16:44:07.918Z,3.33
2023-04-10T16:46:36.247Z,3.85
2023-04-10T16:49:05.718Z,3.35
2023-04-10T16:51:33.737Z,3.63
2023-04-10T16:54:01.616Z,3.50
2023-04-10T16:56:29.422Z,4.32
2023-04-10T16:58:57.824Z,3.45
2023-04-10T17:01:26.082Z,3.83
2023-04-10T17:03:54.722Z,3.40
2023-04-10T17:06:24.057Z,3.38
2023-04-10T17:08:51.972Z,3.45
2023-04-10T17:11:19.812Z,3.63
2023-04-10T17:13:47.812Z,3.95
2023-04-10T17:16:16.434Z,4.00
2023-04-10T17:18:44.547Z,3.63
2023-04-10T17:21:13.246Z,3.88
2023-04-10T17:23:42.691Z,3.63
2023-04-10T17:26:14.702Z,3.90
2023-04-10T17:28:44.869Z,3.78
2023-04-10T17:31:13.146Z,3.85
2023-04-10T17:33:42.154Z,3.38
2023-04-10T17:36:12.248Z,3.65
2023-04-10T17:41:10.534Z,3.67
2023-04-10T17:43:38.428Z,4.03
2023-04-10T17:46:06.915Z,4.03
2023-04-10T17:48:35.204Z,3.67
2023-04-10T17:51:06.273Z,3.47
2023-04-10T17:53:34.245Z,3.30
2023-04-10T17:56:02.179Z,3.60
2023-04-10T17:58:31.691Z,3.60
2023-04-10T18:00:59.778Z,3.78
2023-04-10T18:03:27.795Z,3.40
2023-04-10T18:05:56.750Z,4.10
2023-04-10T18:08:24.740Z,3.97
2023-04-10T18:10:52.800Z,3.67
2023-04-10T18:13:20.675Z,3.90
2023-04-10T18:15:50.011Z,3.58
2023-04-10T18:18:17.871Z,4.25
2023-04-10T18:20:45.938Z,3.90
2023-04-10T18:23:13.866Z,4.07
2023-04-10T18:25:41.941Z,6.15
2023-04-10T18:28:14.976Z,4.13
2023-04-10T18:30:43.938Z,6.28
2023-04-10T18:33:14.191Z,5.53
2023-04-10T18:38:10.254Z,7.55
2023-04-10T18:40:38.344Z,5.85
2023-04-10T18:43:06.376Z,5.32
2023-04-10T18:45:34.969Z,6.22
2023-04-10T18:48:03.016Z,6.95
2023-04-10T18:50:35.071Z,6.50
2023-04-10T18:53:03.267Z,6.03
2023-04-10T18:55:31.357Z,4.85
2023-04-10T18:57:59.250Z,4.20
2023-04-10T19:00:27.216Z,4.10
2023-04-10T19:02:56.442Z,4.30
2023-04-10T19:05:24.566Z,3.00
2023-04-10T19:08:03.553Z,3.45
2023-04-10T19:10:32.568Z,3.83
2023-04-10T19:13:00.346Z,3.85
2023-04-10T19:15:28.317Z,4.28
2023-04-10T19:17:56.590Z,3.40
2023-04-10T19:20:50.871Z,3.90
2023-04-10T19:23:14.132Z,3.70
2023-04-10T19:25:43.662Z,3.40
2023-04-10T19:28:11.663Z,3.50
2023-04-10T19:30:39.598Z,3.50
2023-04-10T19:33:07.558Z,3.50
2023-04-10T19:35:35.509Z,6.07
2023-04-10T19:38:03.457Z,3.20
2023-04-10T19:40:32.727Z,3.67
2023-04-10T19:43:01.974Z,4.13
2023-04-10T19:45:32.174Z,3.37
2023-04-10T19:48:00.404Z,3.63
2023-04-10T19:50:29.459Z,3.30
2023-04-10T19:52:57.309Z,3.53
2023-04-10T19:55:25.131Z,3.25
2023-04-10T19:57:54.666Z,3.55
2023-04-10T20:00:22.535Z,3.75
2023-04-10T20:02:50.510Z,3.97
2023-04-10T20:05:18.573Z,4.30
2023-04-10T20:07:46.480Z,4.32
2023-04-10T20:10:14.285Z,4.38
2023-04-10T20:12:42.360Z,3.80
2023-04-10T20:15:12.578Z,3.72
2023-04-10T20:17:40.636Z,3.60
2023-04-10T20:20:09.490Z,3.70
2023-04-10T20:22:37.306Z,4.45
2023-04-10T20:25:05.594Z,4.22
2023-04-10T20:27:33.416Z,4.45
2023-04-10T20:30:01.258Z,3.90
2023-04-10T20:32:30.512Z,4.57
2023-04-10T20:34:58.319Z,3.13
2023-04-10T20:37:26.232Z,3.53
2023-04-10T20:39:54.094Z,3.70
2023-04-10T20:42:23.148Z,3.70
2023-04-10T20:44:51.036Z,3.58
2023-04-10T20:47:18.900Z,3.75
2023-04-10T20:49:48.055Z,4.55
2023-04-10T20:52:15.859Z,3.58
2023-04-10T20:54:43.629Z,3.65
2023-04-10T20:57:11.483Z,3.35
2023-04-10T20:59:39.334Z,3.40
2023-04-10T21:02:07.615Z,3.58
2023-04-10T21:04:35.755Z,3.58
2023-04-10T21:07:04.889Z,3.58
2023-04-10T21:09:32.714Z,3.80
2023-04-10T21:12:00.520Z,3.58
2023-04-10T21:14:28.279Z,3.50
2023-04-10T21:16:56.192Z,4.20
2023-04-10T21:19:24.121Z,4.60
2023-04-10T21:21:51.981Z,4.18
2023-04-10T21:24:21.124Z,4.18
2023-04-10T21:26:48.948Z,4.28
2023-04-10T21:29:16.835Z,4.00
2023-04-10T21:31:44.789Z,4.38
2023-04-10T21:34:12.595Z,3.40
2023-04-10T21:36:40.469Z,3.70
2023-04-10T21:39:09.208Z,3.55
2023-04-10T21:41:38.882Z,4.00
2023-04-10T21:44:07.837Z,3.88
2023-04-10T21:46:35.684Z,3.63
2023-04-10T21:49:03.564Z,3.45
2023-04-10T21:51:31.426Z,3.67
2023-04-10T21:53:59.265Z,3.17
2023-04-10T21:56:27.117Z,3.38
2023-04-10T21:58:56.502Z,3.70
2023-04-10T22:01:24.435Z,3.30
2023-04-10T22:03:53.823Z,3.80
2023-04-10T22:06:21.981Z,3.45
2023-04-10T22:08:49.973Z,2.90
2023-04-10T22:11:17.878Z,3.25
2023-04-10T22:13:45.926Z,3.97
2023-04-10T22:16:15.491Z,3.33
2023-04-10T22:18:43.281Z,3.85
2023-04-10T22:21:11.135Z,4.45
2023-04-10T22:23:38.925Z,4.10
2023-04-10T22:26:07.336Z,3.97
2023-04-10T22:28:35.457Z,3.95
2023-04-10T22:31:03.335Z,4.20
2023-04-10T22:33:34.424Z,4.10
2023-04-10T22:36:02.275Z,3.70
2023-04-10T22:38:30.163Z,3.78
2023-04-10T22:40:58.166Z,3.17
2023-04-10T22:43:26.074Z,2.67
2023-04-10T22:45:53.926Z,2.70
2023-04-10T22:48:21.837Z,2.58
2023-04-10T22:50:51.068Z,3.20
2023-04-10T22:53:18.881Z,2.70
2023-04-10T22:55:46.800Z,2.63
2023-04-10T22:58:14.616Z,2.70
2023-04-10T23:00:42.522Z,3.28
2023-04-10T23:03:10.567Z,3.28
2023-04-10T23:05:38.520Z,3.60
2023-04-10T23:08:10.365Z,3.67
2023-04-10T23:10:38.226Z,3.53
2023-04-10T23:13:06.080Z,3.70
2023-04-10T23:15:34.268Z,3.60
2023-04-10T23:18:02.059Z,3.80
2023-04-10T23:20:29.905Z,3.35
2023-04-10T23:22:57.740Z,2.95
2023-04-10T23:25:26.965Z,3.03
2023-04-10T23:27:55.520Z,2.70
2023-04-10T23:30:23.498Z,2.20
2023-04-10T23:32:51.465Z,2.03
2023-04-10T23:35:19.394Z,1.88
2023-04-10T23:37:47.426Z,2.03
2023-04-10T23:40:15.362Z,1.83
2023-04-10T23:42:44.598Z,2.25
2023-04-10T23:45:12.783Z,2.30
2023-04-10T23:47:40.636Z,2.83
2023-04-10T23:50:09.683Z,2.60
2023-04-10T23:52:37.619Z,2.60
2023-04-10T23:55:06.367Z,2.85
2023-04-10T23:57:34.238Z,2.40
